sensor_id;sensor_type;location;lat;lon;timestamp;temperature;humidity
15131;DHT22;7666;50.920;4.628;2023-03-01T00:00:41;-0.30;99.90
15131;DHT22;7666;50.920;4.628;2023-03-01T00:03:26;-0.30;99.90
15131;DHT22;7666;50.920;4.628;2023-03-01T00:06:13;-0.40;99.90
15131;DHT22;7666;50.920;4.628;2023-03-01T00:08:59;-0.40;99.90
15131;DHT22;7666;50.920;4.628;2023-03-01T00:11:45;-0.50;99.90
15131;DHT22;7666;50.920;4.628;2023-03-01T00:14:32;-0.50;99.90
15131;DHT22;7666;50.920;4.628;2023-03-01T00:17:18;-0.50;99.90
15131;DHT22;7666;50.920;4.628;2023-03-01T00:20:04;-0.50;99.90
15131;DHT22;7666;50.920;4.628;2023-03-01T00:22:55;-0.50;99.90
15131;DHT22;7666;50.920;4.628;2023-03-01T00:25:43;-0.40;99.90
15131;DHT22;7666;50.920;4.628;2023-03-01T00:28:29;-0.50;99.90
15131;DHT22;7666;50.920;4.628;2023-03-01T00:31:20;-0.50;99.90
15131;DHT22;7666;50.920;4.628;2023-03-01T00:34:06;-0.50;99.90
15131;DHT22;7666;50.920;4.628;2023-03-01T00:36:52;-0.50;99.90
15131;DHT22;7666;50.920;4.628;2023-03-01T00:39:38;-0.50;99.90
15131;DHT22;7666;50.920;4.628;2023-03-01T00:42:24;-0.60;99.90
15131;DHT22;7666;50.920;4.628;2023-03-01T00:45:10;-0.60;99.90
15131;DHT22;7666;50.920;4.628;2023-03-01T00:47:56;-0.70;99.90
15131;DHT22;7666;50.920;4.628;2023-03-01T00:50:42;-0.70;99.90
15131;DHT22;7666;50.920;4.628;2023-03-01T00:53:28;-0.70;99.90
15131;DHT22;7666;50.920;4.628;2023-03-01T00:56:15;-0.70;99.90
15131;DHT22;7666;50.920;4.628;2023-03-01T00:59:01;-0.80;99.90
15131;DHT22;7666;50.920;4.628;2023-03-01T01:01:47;-0.80;99.90
15131;DHT22;7666;50.920;4.628;2023-03-01T01:04:33;-0.80;99.90
15131;DHT22;7666;50.920;4.628;2023-03-01T01:07:19;-0.80;99.90
15131;DHT22;7666;50.920;4.628;2023-03-01T01:10:08;-0.90;99.90
15131;DHT22;7666;50.920;4.628;2023-03-01T01:12:58;-1.00;99.90
15131;DHT22;7666;50.920;4.628;2023-03-01T01:15:44;-1.00;99.90
15131;DHT22;7666;50.920;4.628;2023-03-01T01:18:30;-1.00;99.90
15131;DHT22;7666;50.920;4.628;2023-03-01T01:21:18;-1.00;99.90
15131;DHT22;7666;50.920;4.628;2023-03-01T01:24:05;-1.00;99.90
15131;DHT22;7666;50.920;4.628;2023-03-01T01:26:51;-1.00;99.90
15131;DHT22;7666;50.920;4.628;2023-03-01T01:29:37;-1.00;99.90
15131;DHT22;7666;50.920;4.628;2023-03-01T01:32:23;-0.90;99.90
15131;DHT22;7666;50.920;4.628;2023-03-01T01:35:09;-1.00;99.90
15131;DHT22;7666;50.920;4.628;2023-03-01T01:37:55;-1.00;99.90
15131;DHT22;7666;50.920;4.628;2023-03-01T01:40:48;-1.00;99.90
15131;DHT22;7666;50.920;4.628;2023-03-01T01:43:41;-1.00;99.90
15131;DHT22;7666;50.920;4.628;2023-03-01T01:46:30;-1.00;99.90
15131;DHT22;7666;50.920;4.628;2023-03-01T01:49:37;-1.10;99.90
15131;DHT22;7666;50.920;4.628;2023-03-01T01:52:35;-1.10;99.90
15131;DHT22;7666;50.920;4.628;2023-03-01T01:55:26;-1.10;99.90
15131;DHT22;7666;50.920;4.628;2023-03-01T01:58:17;-1.10;99.90
15131;DHT22;7666;50.920;4.628;2023-03-01T02:01:04;-1.10;99.90
15131;DHT22;7666;50.920;4.628;2023-03-01T02:03:50;-1.10;99.90
15131;DHT22;7666;50.920;4.628;2023-03-01T02:06:45;-1.10;99.90
15131;DHT22;7666;50.920;4.628;2023-03-01T02:09:34;-1.10;99.90
15131;DHT22;7666;50.920;4.628;2023-03-01T02:12:24;-1.10;99.90
15131;DHT22;7666;50.920;4.628;2023-03-01T02:15:10;-1.10;99.90
15131;DHT22;7666;50.920;4.628;2023-03-01T02:17:56;-1.10;99.90
15131;DHT22;7666;50.920;4.628;2023-03-01T02:23:50;-1.20;99.90
15131;DHT22;7666;50.920;4.628;2023-03-01T02:26:51;-1.20;99.90
15131;DHT22;7666;50.920;4.628;2023-03-01T02:29:40;-1.30;99.90
15131;DHT22;7666;50.920;4.628;2023-03-01T02:32:29;-1.30;99.90
15131;DHT22;7666;50.920;4.628;2023-03-01T02:35:16;-1.40;99.90
15131;DHT22;7666;50.920;4.628;2023-03-01T02:38:06;-1.40;99.90
15131;DHT22;7666;50.920;4.628;2023-03-01T02:40:54;-1.40;99.90
15131;DHT22;7666;50.920;4.628;2023-03-01T02:43:41;-1.40;99.90
15131;DHT22;7666;50.920;4.628;2023-03-01T02:46:27;-1.40;99.90
15131;DHT22;7666;50.920;4.628;2023-03-01T02:55:08;-1.50;99.90
15131;DHT22;7666;50.920;4.628;2023-03-01T02:57:55;-1.60;99.90
15131;DHT22;7666;50.920;4.628;2023-03-01T03:00:43;-1.60;99.90
15131;DHT22;7666;50.920;4.628;2023-03-01T03:03:32;-1.50;99.90
15131;DHT22;7666;50.920;4.628;2023-03-01T03:06:18;-1.40;99.90
15131;DHT22;7666;50.920;4.628;2023-03-01T03:09:05;-1.50;99.90
15131;DHT22;7666;50.920;4.628;2023-03-01T03:11:51;-1.50;99.90
15131;DHT22;7666;50.920;4.628;2023-03-01T03:14:37;-1.50;99.90
15131;DHT22;7666;50.920;4.628;2023-03-01T03:17:23;-1.40;99.90
15131;DHT22;7666;50.920;4.628;2023-03-01T03:20:12;-1.50;99.90
15131;DHT22;7666;50.920;4.628;2023-03-01T03:22:58;-1.50;99.90
15131;DHT22;7666;50.920;4.628;2023-03-01T03:25:47;-1.50;99.90
15131;DHT22;7666;50.920;4.628;2023-03-01T03:28:34;-1.50;99.90
15131;DHT22;7666;50.920;4.628;2023-03-01T03:31:20;-1.60;99.90
15131;DHT22;7666;50.920;4.628;2023-03-01T03:34:06;-1.70;99.90
15131;DHT22;7666;50.920;4.628;2023-03-01T03:36:55;-1.80;99.90
15131;DHT22;7666;50.920;4.628;2023-03-01T03:39:42;-1.90;99.90
15131;DHT22;7666;50.920;4.628;2023-03-01T03:42:28;-1.90;99.90
15131;DHT22;7666;50.920;4.628;2023-03-01T03:45:17;-1.90;99.90
15131;DHT22;7666;50.920;4.628;2023-03-01T03:48:05;-2.00;99.90
15131;DHT22;7666;50.920;4.628;2023-03-01T03:50:54;-2.20;99.90
15131;DHT22;7666;50.920;4.628;2023-03-01T03:53:41;-2.30;99.90
15131;DHT22;7666;50.920;4.628;2023-03-01T03:56:27;-2.30;99.90
15131;DHT22;7666;50.920;4.628;2023-03-01T03:59:13;-2.20;99.90
15131;DHT22;7666;50.920;4.628;2023-03-01T04:01:59;-2.10;99.90
15131;DHT22;7666;50.920;4.628;2023-03-01T04:04:45;-2.10;99.90
15131;DHT22;7666;50.920;4.628;2023-03-01T04:07:31;-2.00;99.90
15131;DHT22;7666;50.920;4.628;2023-03-01T04:10:17;-2.00;99.90
15131;DHT22;7666;50.920;4.628;2023-03-01T04:13:05;-2.00;99.90
15131;DHT22;7666;50.920;4.628;2023-03-01T04:15:52;-1.90;99.90
15131;DHT22;7666;50.920;4.628;2023-03-01T04:18:38;-1.90;99.90
15131;DHT22;7666;50.920;4.628;2023-03-01T04:21:24;-1.90;99.90
15131;DHT22;7666;50.920;4.628;2023-03-01T04:24:11;-1.90;99.90
15131;DHT22;7666;50.920;4.628;2023-03-01T04:26:58;-1.90;99.90
15131;DHT22;7666;50.920;4.628;2023-03-01T04:29:44;-1.90;99.90
15131;DHT22;7666;50.920;4.628;2023-03-01T04:32:30;-1.90;99.90
15131;DHT22;7666;50.920;4.628;2023-03-01T04:35:16;-2.00;99.90
15131;DHT22;7666;50.920;4.628;2023-03-01T04:38:03;-2.00;99.90
15131;DHT22;7666;50.920;4.628;2023-03-01T04:40:49;-2.10;99.90
15131;DHT22;7666;50.920;4.628;2023-03-01T04:43:36;-2.30;99.90
15131;DHT22;7666;50.920;4.628;2023-03-01T04:46:22;-2.20;99.90
15131;DHT22;7666;50.920;4.628;2023-03-01T04:49:08;-2.20;99.90
15131;DHT22;7666;50.920;4.628;2023-03-01T04:51:54;-2.20;99.90
15131;DHT22;7666;50.920;4.628;2023-03-01T04:54:40;-2.20;99.90
15131;DHT22;7666;50.920;4.628;2023-03-01T04:57:26;-2.20;99.90
15131;DHT22;7666;50.920;4.628;2023-03-01T05:00:15;-2.30;99.90
15131;DHT22;7666;50.920;4.628;2023-03-01T05:03:08;-2.40;99.90
15131;DHT22;7666;50.920;4.628;2023-03-01T05:05:58;-2.30;99.90
15131;DHT22;7666;50.920;4.628;2023-03-01T05:08:45;-2.40;99.90
15131;DHT22;7666;50.920;4.628;2023-03-01T05:11:31;-2.30;99.90
15131;DHT22;7666;50.920;4.628;2023-03-01T05:14:21;-2.30;99.90
15131;DHT22;7666;50.920;4.628;2023-03-01T05:17:07;-2.30;99.90
15131;DHT22;7666;50.920;4.628;2023-03-01T05:19:53;-2.40;99.90
15131;DHT22;7666;50.920;4.628;2023-03-01T05:22:41;-2.50;99.90
15131;DHT22;7666;50.920;4.628;2023-03-01T05:25:27;-2.50;99.90
15131;DHT22;7666;50.920;4.628;2023-03-01T05:28:19;-2.60;99.90
15131;DHT22;7666;50.920;4.628;2023-03-01T05:31:06;-2.50;99.90
15131;DHT22;7666;50.920;4.628;2023-03-01T05:33:55;-2.50;99.90
15131;DHT22;7666;50.920;4.628;2023-03-01T05:36:41;-2.50;99.90
15131;DHT22;7666;50.920;4.628;2023-03-01T05:39:28;-2.40;99.90
15131;DHT22;7666;50.920;4.628;2023-03-01T05:42:14;-2.40;99.90
15131;DHT22;7666;50.920;4.628;2023-03-01T05:45:00;-2.30;99.90
15131;DHT22;7666;50.920;4.628;2023-03-01T05:47:48;-2.30;99.90
15131;DHT22;7666;50.920;4.628;2023-03-01T05:50:40;-2.20;99.90
15131;DHT22;7666;50.920;4.628;2023-03-01T05:53:26;-2.30;99.90
15131;DHT22;7666;50.920;4.628;2023-03-01T05:56:12;-2.30;99.90
15131;DHT22;7666;50.920;4.628;2023-03-01T05:58:58;-2.30;99.90
15131;DHT22;7666;50.920;4.628;2023-03-01T06:01:44;-2.40;99.90
15131;DHT22;7666;50.920;4.628;2023-03-01T06:04:30;-2.40;99.90
15131;DHT22;7666;50.920;4.628;2023-03-01T06:07:16;-2.30;99.90
15131;DHT22;7666;50.920;4.628;2023-03-01T06:10:03;-2.40;99.90
15131;DHT22;7666;50.920;4.628;2023-03-01T06:12:49;-2.50;99.90
15131;DHT22;7666;50.920;4.628;2023-03-01T06:15:35;-2.50;99.90
15131;DHT22;7666;50.920;4.628;2023-03-01T06:18:21;-2.50;99.90
15131;DHT22;7666;50.920;4.628;2023-03-01T06:21:08;-2.50;99.90
15131;DHT22;7666;50.920;4.628;2023-03-01T06:23:54;-2.40;99.90
15131;DHT22;7666;50.920;4.628;2023-03-01T06:26:40;-2.50;99.90
15131;DHT22;7666;50.920;4.628;2023-03-01T06:29:26;-2.50;99.90
15131;DHT22;7666;50.920;4.628;2023-03-01T06:32:12;-2.40;99.90
15131;DHT22;7666;50.920;4.628;2023-03-01T06:34:58;-2.40;99.90
15131;DHT22;7666;50.920;4.628;2023-03-01T06:37:45;-2.40;99.90
15131;DHT22;7666;50.920;4.628;2023-03-01T06:40:31;-2.30;99.90
15131;DHT22;7666;50.920;4.628;2023-03-01T06:43:17;-2.10;99.90
15131;DHT22;7666;50.920;4.628;2023-03-01T06:46:05;-1.80;99.90
15131;DHT22;7666;50.920;4.628;2023-03-01T06:48:52;-1.00;99.90
15131;DHT22;7666;50.920;4.628;2023-03-01T06:51:38;-0.10;99.90
15131;DHT22;7666;50.920;4.628;2023-03-01T06:54:24;1.00;99.90
15131;DHT22;7666;50.920;4.628;2023-03-01T06:57:10;1.90;99.90
15131;DHT22;7666;50.920;4.628;2023-03-01T06:59:56;2.90;99.90
15131;DHT22;7666;50.920;4.628;2023-03-01T07:02:42;3.70;99.90
15131;DHT22;7666;50.920;4.628;2023-03-01T07:05:29;4.30;99.90
15131;DHT22;7666;50.920;4.628;2023-03-01T07:08:15;5.10;99.90
15131;DHT22;7666;50.920;4.628;2023-03-01T07:11:01;5.90;99.90
15131;DHT22;7666;50.920;4.628;2023-03-01T07:13:51;6.50;99.90
15131;DHT22;7666;50.920;4.628;2023-03-01T07:16:37;6.80;99.90
15131;DHT22;7666;50.920;4.628;2023-03-01T07:19:23;7.40;99.90
15131;DHT22;7666;50.920;4.628;2023-03-01T07:22:09;8.10;99.90
15131;DHT22;7666;50.920;4.628;2023-03-01T07:24:55;8.50;99.90
15131;DHT22;7666;50.920;4.628;2023-03-01T07:27:41;9.10;99.90
15131;DHT22;7666;50.920;4.628;2023-03-01T07:30:27;9.70;99.90
15131;DHT22;7666;50.920;4.628;2023-03-01T07:33:14;10.10;99.90
15131;DHT22;7666;50.920;4.628;2023-03-01T07:36:02;10.40;99.90
15131;DHT22;7666;50.920;4.628;2023-03-01T07:38:49;10.70;99.90
15131;DHT22;7666;50.920;4.628;2023-03-01T07:41:35;10.90;99.90
15131;DHT22;7666;50.920;4.628;2023-03-01T07:44:21;11.00;99.90
15131;DHT22;7666;50.920;4.628;2023-03-01T07:47:07;11.10;99.90
15131;DHT22;7666;50.920;4.628;2023-03-01T07:49:53;11.40;99.90
15131;DHT22;7666;50.920;4.628;2023-03-01T07:52:39;11.70;99.90
15131;DHT22;7666;50.920;4.628;2023-03-01T07:55:25;11.90;99.90
15131;DHT22;7666;50.920;4.628;2023-03-01T07:58:11;12.20;99.90
15131;DHT22;7666;50.920;4.628;2023-03-01T08:01:02;12.20;99.80
15131;DHT22;7666;50.920;4.628;2023-03-01T08:03:48;12.00;99.70
15131;DHT22;7666;50.920;4.628;2023-03-01T08:06:35;12.00;99.70
15131;DHT22;7666;50.920;4.628;2023-03-01T08:09:21;11.70;99.90
15131;DHT22;7666;50.920;4.628;2023-03-01T08:12:07;11.30;99.90
15131;DHT22;7666;50.920;4.628;2023-03-01T08:14:54;10.60;99.90
15131;DHT22;7666;50.920;4.628;2023-03-01T08:17:40;9.50;99.90
15131;DHT22;7666;50.920;4.628;2023-03-01T08:20:26;8.10;99.90
15131;DHT22;7666;50.920;4.628;2023-03-01T08:23:12;7.00;99.90
15131;DHT22;7666;50.920;4.628;2023-03-01T08:26:05;5.90;99.90
15131;DHT22;7666;50.920;4.628;2023-03-01T08:28:52;4.90;99.90
15131;DHT22;7666;50.920;4.628;2023-03-01T08:31:39;4.40;99.90
15131;DHT22;7666;50.920;4.628;2023-03-01T08:34:25;4.20;99.90
15131;DHT22;7666;50.920;4.628;2023-03-01T08:37:11;3.80;99.90
15131;DHT22;7666;50.920;4.628;2023-03-01T08:39:57;3.60;99.90
15131;DHT22;7666;50.920;4.628;2023-03-01T08:42:43;3.50;99.90
15131;DHT22;7666;50.920;4.628;2023-03-01T08:45:29;3.50;99.90
15131;DHT22;7666;50.920;4.628;2023-03-01T08:48:15;3.60;99.90
15131;DHT22;7666;50.920;4.628;2023-03-01T08:51:13;3.60;99.90
15131;DHT22;7666;50.920;4.628;2023-03-01T08:53:59;3.60;99.90
15131;DHT22;7666;50.920;4.628;2023-03-01T08:56:45;3.80;99.90
15131;DHT22;7666;50.920;4.628;2023-03-01T08:59:31;3.80;99.90
15131;DHT22;7666;50.920;4.628;2023-03-01T09:02:22;3.70;99.90
15131;DHT22;7666;50.920;4.628;2023-03-01T09:05:08;3.40;99.90
15131;DHT22;7666;50.920;4.628;2023-03-01T09:07:54;3.20;99.90
15131;DHT22;7666;50.920;4.628;2023-03-01T09:10:42;3.40;99.90
15131;DHT22;7666;50.920;4.628;2023-03-01T09:13:28;3.60;99.90
15131;DHT22;7666;50.920;4.628;2023-03-01T09:16:18;3.70;99.90
15131;DHT22;7666;50.920;4.628;2023-03-01T09:19:05;3.70;99.90
15131;DHT22;7666;50.920;4.628;2023-03-01T09:21:51;3.90;99.90
15131;DHT22;7666;50.920;4.628;2023-03-01T09:24:41;3.80;99.90
15131;DHT22;7666;50.920;4.628;2023-03-01T09:27:27;3.90;99.90
15131;DHT22;7666;50.920;4.628;2023-03-01T09:30:13;4.10;99.90
15131;DHT22;7666;50.920;4.628;2023-03-01T09:32:59;4.20;99.90
15131;DHT22;7666;50.920;4.628;2023-03-01T09:35:45;4.20;99.90
15131;DHT22;7666;50.920;4.628;2023-03-01T09:38:32;4.30;99.90
15131;DHT22;7666;50.920;4.628;2023-03-01T09:47:33;4.40;99.90
15131;DHT22;7666;50.920;4.628;2023-03-01T09:50:21;4.50;99.90
15131;DHT22;7666;50.920;4.628;2023-03-01T09:53:09;4.50;99.90
15131;DHT22;7666;50.920;4.628;2023-03-01T10:08:34;4.80;99.90
15131;DHT22;7666;50.920;4.628;2023-03-01T10:11:30;4.90;99.90
15131;DHT22;7666;50.920;4.628;2023-03-01T10:17:08;5.00;99.90
15131;DHT22;7666;50.920;4.628;2023-03-01T10:19:55;5.10;99.90
15131;DHT22;7666;50.920;4.628;2023-03-01T10:22:41;5.20;99.90
15131;DHT22;7666;50.920;4.628;2023-03-01T10:31:47;5.30;99.90
15131;DHT22;7666;50.920;4.628;2023-03-01T10:34:35;5.30;99.90
15131;DHT22;7666;50.920;4.628;2023-03-01T10:37:22;5.40;99.90
15131;DHT22;7666;50.920;4.628;2023-03-01T10:40:10;5.60;99.90
15131;DHT22;7666;50.920;4.628;2023-03-01T10:43:02;5.70;99.90
15131;DHT22;7666;50.920;4.628;2023-03-01T10:45:49;5.50;99.90
15131;DHT22;7666;50.920;4.628;2023-03-01T10:48:35;5.50;99.90
15131;DHT22;7666;50.920;4.628;2023-03-01T10:51:22;5.30;99.90
15131;DHT22;7666;50.920;4.628;2023-03-01T10:54:27;5.70;99.90
15131;DHT22;7666;50.920;4.628;2023-03-01T10:57:37;5.90;99.90
15131;DHT22;7666;50.920;4.628;2023-03-01T11:00:25;5.80;99.90
15131;DHT22;7666;50.920;4.628;2023-03-01T11:03:14;5.90;99.90
15131;DHT22;7666;50.920;4.628;2023-03-01T11:06:19;6.10;99.90
15131;DHT22;7666;50.920;4.628;2023-03-01T11:09:20;6.00;99.90
15131;DHT22;7666;50.920;4.628;2023-03-01T11:12:14;6.30;99.90
15131;DHT22;7666;50.920;4.628;2023-03-01T11:15:01;6.40;99.90
15131;DHT22;7666;50.920;4.628;2023-03-01T11:17:48;6.50;99.90
15131;DHT22;7666;50.920;4.628;2023-03-01T11:20:37;6.70;99.90
15131;DHT22;7666;50.920;4.628;2023-03-01T11:23:24;6.60;99.90
15131;DHT22;7666;50.920;4.628;2023-03-01T11:26:12;6.10;99.90
15131;DHT22;7666;50.920;4.628;2023-03-01T11:29:03;6.20;99.90
15131;DHT22;7666;50.920;4.628;2023-03-01T11:31:51;6.40;99.90
15131;DHT22;7666;50.920;4.628;2023-03-01T11:37:44;6.30;99.90
15131;DHT22;7666;50.920;4.628;2023-03-01T11:40:39;6.30;99.90
15131;DHT22;7666;50.920;4.628;2023-03-01T11:50:02;7.00;99.90
15131;DHT22;7666;50.920;4.628;2023-03-01T11:59:33;7.10;99.90
15131;DHT22;7666;50.920;4.628;2023-03-01T12:09:15;7.30;99.90
15131;DHT22;7666;50.920;4.628;2023-03-01T12:12:29;7.60;99.90
15131;DHT22;7666;50.920;4.628;2023-03-01T12:15:38;7.60;99.90
15131;DHT22;7666;50.920;4.628;2023-03-01T12:19:01;7.70;99.90
15131;DHT22;7666;50.920;4.628;2023-03-01T12:25:21;7.60;99.90
15131;DHT22;7666;50.920;4.628;2023-03-01T12:31:03;7.80;99.90
15131;DHT22;7666;50.920;4.628;2023-03-01T12:34:00;7.90;99.90
15131;DHT22;7666;50.920;4.628;2023-03-01T12:36:59;7.90;99.90
15131;DHT22;7666;50.920;4.628;2023-03-01T12:52:55;7.30;99.90
15131;DHT22;7666;50.920;4.628;2023-03-01T12:55:43;7.60;99.90
15131;DHT22;7666;50.920;4.628;2023-03-01T13:08:42;7.50;99.90
15131;DHT22;7666;50.920;4.628;2023-03-01T13:11:29;7.80;99.90
15131;DHT22;7666;50.920;4.628;2023-03-01T13:17:32;7.90;99.90
15131;DHT22;7666;50.920;4.628;2023-03-01T13:20:24;7.90;99.90
15131;DHT22;7666;50.920;4.628;2023-03-01T13:26:11;7.60;99.90
15131;DHT22;7666;50.920;4.628;2023-03-01T13:28:57;7.70;99.90
15131;DHT22;7666;50.920;4.628;2023-03-01T13:31:55;7.80;99.90
15131;DHT22;7666;50.920;4.628;2023-03-01T13:34:44;8.00;99.90
15131;DHT22;7666;50.920;4.628;2023-03-01T13:37:36;8.00;99.90
15131;DHT22;7666;50.920;4.628;2023-03-01T13:43:38;7.80;99.90
15131;DHT22;7666;50.920;4.628;2023-03-01T13:46:24;7.80;99.90
15131;DHT22;7666;50.920;4.628;2023-03-01T13:49:15;8.00;99.90
15131;DHT22;7666;50.920;4.628;2023-03-01T13:52:02;8.10;99.90
15131;DHT22;7666;50.920;4.628;2023-03-01T13:54:48;7.80;99.90
15131;DHT22;7666;50.920;4.628;2023-03-01T13:57:36;7.70;99.90
15131;DHT22;7666;50.920;4.628;2023-03-01T14:00:39;7.50;99.90
15131;DHT22;7666;50.920;4.628;2023-03-01T14:03:26;7.50;99.90
15131;DHT22;7666;50.920;4.628;2023-03-01T14:06:14;7.60;99.90
15131;DHT22;7666;50.920;4.628;2023-03-01T14:12:05;7.50;99.90
15131;DHT22;7666;50.920;4.628;2023-03-01T14:14:54;7.60;99.90
15131;DHT22;7666;50.920;4.628;2023-03-01T14:18:22;7.60;99.90
15131;DHT22;7666;50.920;4.628;2023-03-01T14:21:01;7.50;99.90
15131;DHT22;7666;50.920;4.628;2023-03-01T14:23:53;7.50;99.90
15131;DHT22;7666;50.920;4.628;2023-03-01T14:26:40;7.50;99.90
15131;DHT22;7666;50.920;4.628;2023-03-01T14:29:37;7.50;99.90
15131;DHT22;7666;50.920;4.628;2023-03-01T14:32:27;7.50;99.90
15131;DHT22;7666;50.920;4.628;2023-03-01T14:35:34;7.40;99.90
15131;DHT22;7666;50.920;4.628;2023-03-01T14:38:27;7.50;99.90
15131;DHT22;7666;50.920;4.628;2023-03-01T14:41:21;7.40;99.90
15131;DHT22;7666;50.920;4.628;2023-03-01T14:44:14;7.40;99.90
15131;DHT22;7666;50.920;4.628;2023-03-01T14:47:01;7.40;99.90
15131;DHT22;7666;50.920;4.628;2023-03-01T14:49:50;7.50;99.90
15131;DHT22;7666;50.920;4.628;2023-03-01T14:52:42;7.60;99.90
15131;DHT22;7666;50.920;4.628;2023-03-01T14:55:31;7.70;99.90
15131;DHT22;7666;50.920;4.628;2023-03-01T14:58:24;7.70;99.90
15131;DHT22;7666;50.920;4.628;2023-03-01T15:01:13;7.80;99.90
15131;DHT22;7666;50.920;4.628;2023-03-01T15:04:00;7.80;99.90
15131;DHT22;7666;50.920;4.628;2023-03-01T15:06:50;7.80;99.90
15131;DHT22;7666;50.920;4.628;2023-03-01T15:09:37;7.90;99.90
15131;DHT22;7666;50.920;4.628;2023-03-01T15:12:36;7.90;99.90
15131;DHT22;7666;50.920;4.628;2023-03-01T15:18:27;7.80;99.90
15131;DHT22;7666;50.920;4.628;2023-03-01T15:27:00;7.60;99.90
15131;DHT22;7666;50.920;4.628;2023-03-01T15:30:02;7.40;99.90
15131;DHT22;7666;50.920;4.628;2023-03-01T15:33:15;7.40;99.90
15131;DHT22;7666;50.920;4.628;2023-03-01T15:36:43;7.50;99.90
15131;DHT22;7666;50.920;4.628;2023-03-01T15:39:39;7.50;99.90
15131;DHT22;7666;50.920;4.628;2023-03-01T15:48:03;7.40;99.90
15131;DHT22;7666;50.920;4.628;2023-03-01T15:50:58;7.40;99.90
15131;DHT22;7666;50.920;4.628;2023-03-01T15:53:48;7.40;99.90
15131;DHT22;7666;50.920;4.628;2023-03-01T15:56:35;7.30;99.90
15131;DHT22;7666;50.920;4.628;2023-03-01T15:59:22;7.30;99.90
15131;DHT22;7666;50.920;4.628;2023-03-01T16:02:11;7.30;99.90
15131;DHT22;7666;50.920;4.628;2023-03-01T16:05:00;7.40;99.90
15131;DHT22;7666;50.920;4.628;2023-03-01T16:07:46;7.30;99.90
15131;DHT22;7666;50.920;4.628;2023-03-01T16:10:33;7.20;99.90
15131;DHT22;7666;50.920;4.628;2023-03-01T16:13:19;7.20;99.90
15131;DHT22;7666;50.920;4.628;2023-03-01T16:16:05;7.20;99.90
15131;DHT22;7666;50.920;4.628;2023-03-01T16:18:51;7.20;99.90
15131;DHT22;7666;50.920;4.628;2023-03-01T16:21:38;7.10;99.90
15131;DHT22;7666;50.920;4.628;2023-03-01T16:24:24;7.10;99.90
15131;DHT22;7666;50.920;4.628;2023-03-01T16:27:11;7.00;99.90
15131;DHT22;7666;50.920;4.628;2023-03-01T16:29:57;7.00;99.90
15131;DHT22;7666;50.920;4.628;2023-03-01T16:32:44;6.90;99.90
15131;DHT22;7666;50.920;4.628;2023-03-01T16:35:31;6.80;99.90
15131;DHT22;7666;50.920;4.628;2023-03-01T16:38:16;6.80;99.90
15131;DHT22;7666;50.920;4.628;2023-03-01T16:41:03;6.70;99.90
15131;DHT22;7666;50.920;4.628;2023-03-01T16:43:50;6.70;99.90
15131;DHT22;7666;50.920;4.628;2023-03-01T16:46:36;6.70;99.90
15131;DHT22;7666;50.920;4.628;2023-03-01T16:49:22;6.60;99.90
15131;DHT22;7666;50.920;4.628;2023-03-01T16:52:08;6.50;99.90
15131;DHT22;7666;50.920;4.628;2023-03-01T16:54:54;6.50;99.90
15131;DHT22;7666;50.920;4.628;2023-03-01T16:57:40;6.40;99.90
15131;DHT22;7666;50.920;4.628;2023-03-01T17:00:26;6.30;99.90
15131;DHT22;7666;50.920;4.628;2023-03-01T17:03:12;6.20;99.90
15131;DHT22;7666;50.920;4.628;2023-03-01T17:06:04;6.10;99.90
15131;DHT22;7666;50.920;4.628;2023-03-01T17:08:50;6.10;99.90
15131;DHT22;7666;50.920;4.628;2023-03-01T17:11:36;6.00;99.90
15131;DHT22;7666;50.920;4.628;2023-03-01T17:14:22;5.90;99.90
15131;DHT22;7666;50.920;4.628;2023-03-01T17:17:10;5.90;99.90
15131;DHT22;7666;50.920;4.628;2023-03-01T17:19:56;5.80;99.90
15131;DHT22;7666;50.920;4.628;2023-03-01T17:22:42;5.70;99.90
15131;DHT22;7666;50.920;4.628;2023-03-01T17:25:28;5.60;99.90
15131;DHT22;7666;50.920;4.628;2023-03-01T17:28:15;5.60;99.90
15131;DHT22;7666;50.920;4.628;2023-03-01T17:31:02;5.50;99.90
15131;DHT22;7666;50.920;4.628;2023-03-01T17:33:48;5.50;99.90
15131;DHT22;7666;50.920;4.628;2023-03-01T17:36:34;5.40;99.90
15131;DHT22;7666;50.920;4.628;2023-03-01T17:39:29;5.40;99.90
15131;DHT22;7666;50.920;4.628;2023-03-01T17:42:20;5.40;99.90
15131;DHT22;7666;50.920;4.628;2023-03-01T17:45:07;5.40;99.90
15131;DHT22;7666;50.920;4.628;2023-03-01T17:47:53;5.30;99.90
15131;DHT22;7666;50.920;4.628;2023-03-01T17:50:39;5.30;99.90
15131;DHT22;7666;50.920;4.628;2023-03-01T17:53:27;5.20;99.90
15131;DHT22;7666;50.920;4.628;2023-03-01T17:56:14;5.10;99.90
15131;DHT22;7666;50.920;4.628;2023-03-01T17:59:00;5.10;99.90
15131;DHT22;7666;50.920;4.628;2023-03-01T18:01:46;5.00;99.90
15131;DHT22;7666;50.920;4.628;2023-03-01T18:04:32;4.90;99.90
15131;DHT22;7666;50.920;4.628;2023-03-01T18:07:19;4.90;99.90
15131;DHT22;7666;50.920;4.628;2023-03-01T18:10:05;4.80;99.90
15131;DHT22;7666;50.920;4.628;2023-03-01T18:12:51;4.80;99.90
15131;DHT22;7666;50.920;4.628;2023-03-01T18:15:37;4.70;99.90
15131;DHT22;7666;50.920;4.628;2023-03-01T18:18:23;4.70;99.90
15131;DHT22;7666;50.920;4.628;2023-03-01T18:21:10;4.60;99.90
15131;DHT22;7666;50.920;4.628;2023-03-01T18:23:57;4.60;99.90
15131;DHT22;7666;50.920;4.628;2023-03-01T18:26:44;4.50;99.90
15131;DHT22;7666;50.920;4.628;2023-03-01T18:29:30;4.50;99.90
15131;DHT22;7666;50.920;4.628;2023-03-01T18:32:16;4.40;99.90
15131;DHT22;7666;50.920;4.628;2023-03-01T18:35:04;4.40;99.90
15131;DHT22;7666;50.920;4.628;2023-03-01T18:37:50;4.30;99.90
15131;DHT22;7666;50.920;4.628;2023-03-01T18:40:36;4.30;99.90
15131;DHT22;7666;50.920;4.628;2023-03-01T18:43:23;4.30;99.90
15131;DHT22;7666;50.920;4.628;2023-03-01T18:46:09;4.20;99.90
15131;DHT22;7666;50.920;4.628;2023-03-01T18:48:55;4.20;99.90
15131;DHT22;7666;50.920;4.628;2023-03-01T18:51:41;4.10;99.90
15131;DHT22;7666;50.920;4.628;2023-03-01T18:54:27;4.10;99.90
15131;DHT22;7666;50.920;4.628;2023-03-01T18:57:13;4.10;99.90
15131;DHT22;7666;50.920;4.628;2023-03-01T18:59:59;4.00;99.90
15131;DHT22;7666;50.920;4.628;2023-03-01T19:02:45;4.00;99.90
15131;DHT22;7666;50.920;4.628;2023-03-01T19:05:32;4.00;99.90
15131;DHT22;7666;50.920;4.628;2023-03-01T19:08:18;4.00;99.90
15131;DHT22;7666;50.920;4.628;2023-03-01T19:11:04;3.90;99.90
15131;DHT22;7666;50.920;4.628;2023-03-01T19:13:50;3.80;99.90
15131;DHT22;7666;50.920;4.628;2023-03-01T19:16:38;3.80;99.90
15131;DHT22;7666;50.920;4.628;2023-03-01T19:19:24;3.80;99.90
15131;DHT22;7666;50.920;4.628;2023-03-01T19:22:10;3.60;99.90
15131;DHT22;7666;50.920;4.628;2023-03-01T19:24:56;3.60;99.90
15131;DHT22;7666;50.920;4.628;2023-03-01T19:27:42;3.50;99.90
15131;DHT22;7666;50.920;4.628;2023-03-01T19:30:28;3.50;99.90
15131;DHT22;7666;50.920;4.628;2023-03-01T19:33:14;3.40;99.90
15131;DHT22;7666;50.920;4.628;2023-03-01T19:36:02;3.40;99.90
15131;DHT22;7666;50.920;4.628;2023-03-01T19:38:48;3.40;99.90
15131;DHT22;7666;50.920;4.628;2023-03-01T19:41:34;3.40;99.90
15131;DHT22;7666;50.920;4.628;2023-03-01T19:44:20;3.40;99.90
15131;DHT22;7666;50.920;4.628;2023-03-01T19:47:09;3.40;99.90
15131;DHT22;7666;50.920;4.628;2023-03-01T19:49:55;3.40;99.90
15131;DHT22;7666;50.920;4.628;2023-03-01T19:52:41;3.30;99.90
15131;DHT22;7666;50.920;4.628;2023-03-01T19:55:27;3.20;99.90
15131;DHT22;7666;50.920;4.628;2023-03-01T19:58:13;3.20;99.90
15131;DHT22;7666;50.920;4.628;2023-03-01T20:00:59;3.10;99.90
15131;DHT22;7666;50.920;4.628;2023-03-01T20:03:46;3.10;99.90
15131;DHT22;7666;50.920;4.628;2023-03-01T20:06:32;3.10;99.90